createdAt,value
2023-06-19T00:00:31.445Z,100965.97
2023-06-19T00:03:15.070Z,100969.78
2023-06-19T00:05:58.746Z,100962.22
2023-06-19T00:08:42.678Z,100970.16
2023-06-19T00:11:26.276Z,100965.13
2023-06-19T00:14:09.906Z,100982.06
2023-06-19T00:16:53.453Z,100971.63
2023-06-19T00:19:37.593Z,100964.28
2023-06-19T00:22:21.593Z,100964.38
2023-06-19T00:25:05.564Z,100961.03
2023-06-19T00:27:49.281Z,100962.50
2023-06-19T00:30:33.930Z,100961.94
2023-06-19T00:33:17.640Z,100971.78
2023-06-19T00:36:02.584Z,100977.97
2023-06-19T00:38:46.222Z,100971.00
2023-06-19T00:41:32.144Z,100965.53
2023-06-19T00:44:16.074Z,100964.66
2023-06-19T00:47:03.805Z,100971.88
2023-06-19T00:49:47.458Z,100970.88
2023-06-19T00:52:31.102Z,100974.97
2023-06-19T00:55:17.251Z,100965.78
2023-06-19T00:58:02.915Z,100972.53
2023-06-19T01:00:56.050Z,100972.16
2023-06-19T01:03:48.768Z,100971.81
2023-06-19T01:06:59.815Z,100969.63
2023-06-19T01:09:52.525Z,100966.56
2023-06-19T01:12:41.652Z,100963.88
2023-06-19T01:15:27.230Z,100958.72
2023-06-19T01:18:12.681Z,100958.34
2023-06-19T01:20:56.541Z,100954.38
2023-06-19T01:23:41.299Z,100946.44
2023-06-19T01:26:29.194Z,100950.31
2023-06-19T01:29:17.494Z,100946.31
2023-06-19T01:32:19.200Z,100949.28
2023-06-19T01:35:05.444Z,100947.88
2023-06-19T01:37:51.457Z,100948.63
2023-06-19T01:40:36.641Z,100944.13
2023-06-19T01:43:21.109Z,100946.31
2023-06-19T01:46:05.363Z,100931.47
2023-06-19T01:48:49.200Z,100941.97
2023-06-19T01:51:32.976Z,100936.00
2023-06-19T01:54:17.932Z,100934.56
2023-06-19T01:57:01.749Z,100930.22
2023-06-19T01:59:45.377Z,100927.44
2023-06-19T02:02:29.059Z,100927.59
2023-06-19T02:05:12.842Z,100921.53
2023-06-19T02:07:56.451Z,100919.19
2023-06-19T02:10:40.137Z,100919.66
2023-06-19T02:13:23.886Z,100916.22
2023-06-19T02:16:07.674Z,100911.81
2023-06-19T02:18:51.413Z,100916.13
2023-06-19T02:21:35.027Z,100907.31
2023-06-19T02:24:18.782Z,100911.81
2023-06-19T02:27:03.428Z,100913.72
2023-06-19T02:29:47.042Z,100902.56
2023-06-19T02:32:30.709Z,100916.25
2023-06-19T02:35:16.648Z,100903.19
2023-06-19T02:38:00.349Z,100909.09
2023-06-19T02:40:44.021Z,100904.97
2023-06-19T02:43:27.969Z,100903.97
2023-06-19T02:46:13.453Z,100897.16
2023-06-19T02:48:58.561Z,100893.53
2023-06-19T02:51:42.625Z,100899.78
2023-06-19T02:54:26.289Z,100898.19
2023-06-19T02:57:10.348Z,100898.66
2023-06-19T02:59:54.199Z,100899.16
2023-06-19T03:02:37.963Z,100894.31
2023-06-19T03:05:21.756Z,100899.47
2023-06-19T03:08:05.761Z,100894.44
2023-06-19T03:10:49.366Z,100891.66
2023-06-19T03:13:57.437Z,100898.00
2023-06-19T03:16:41.126Z,100897.56
2023-06-19T03:19:24.952Z,100895.28
2023-06-19T03:22:08.615Z,100895.00
2023-06-19T03:24:53.194Z,100902.41
2023-06-19T03:27:39.263Z,100907.84
2023-06-19T03:30:23.947Z,100911.59
2023-06-19T03:33:09.320Z,100914.22
2023-06-19T03:35:58.739Z,100914.22
2023-06-19T03:38:56.732Z,100910.41
2023-06-19T03:41:44.077Z,100908.47
2023-06-19T03:44:27.763Z,100917.34
2023-06-19T03:47:11.391Z,100917.81
2023-06-19T03:49:55.964Z,100919.25
2023-06-19T03:52:39.684Z,100933.56
2023-06-19T03:55:23.308Z,100935.22
2023-06-19T03:58:07.417Z,100925.03
2023-06-19T04:00:51.055Z,100932.47
2023-06-19T04:03:35.707Z,100926.03
2023-06-19T04:06:19.612Z,100931.56
2023-06-19T04:09:03.856Z,100925.06
2023-06-19T04:11:47.804Z,100918.50
2023-06-19T04:14:31.431Z,100918.50
2023-06-19T04:17:16.869Z,100904.47
2023-06-19T04:20:00.469Z,100898.09
2023-06-19T04:22:44.088Z,100891.59
2023-06-19T04:25:28.223Z,100891.59
2023-06-19T04:28:13.761Z,100898.84
2023-06-19T04:31:01.576Z,100903.28
2023-06-19T04:33:47.250Z,100886.31
2023-06-19T04:36:32.976Z,100894.25
2023-06-19T04:39:17.296Z,100905.75
2023-06-19T04:42:01.586Z,100912.56
2023-06-19T04:44:45.165Z,100919.84
2023-06-19T04:47:39.754Z,100918.16
2023-06-19T04:50:27.740Z,100914.78
2023-06-19T04:53:11.520Z,100917.53
2023-06-19T04:55:56.453Z,100930.31
2023-06-19T04:58:46.957Z,100928.69
2023-06-19T05:01:33.382Z,100928.59
2023-06-19T05:04:17.134Z,100937.75
2023-06-19T05:07:01.094Z,100937.59
2023-06-19T05:09:44.728Z,100935.84
2023-06-19T05:12:28.305Z,100937.78
2023-06-19T05:15:12.352Z,100937.06
2023-06-19T05:17:56.129Z,100939.09
2023-06-19T05:20:39.983Z,100951.00
2023-06-19T05:23:23.720Z,100945.34
2023-06-19T05:26:07.683Z,100940.28
2023-06-19T05:28:51.330Z,100941.09
2023-06-19T05:31:34.904Z,100941.56
2023-06-19T05:34:18.762Z,100950.31
2023-06-19T05:37:04.853Z,100945.19
2023-06-19T05:39:51.132Z,100952.34
2023-06-19T05:42:34.827Z,100946.00
2023-06-19T05:45:18.582Z,100953.09
2023-06-19T05:48:02.451Z,100956.69
2023-06-19T05:50:46.119Z,100956.69
2023-06-19T05:53:30.186Z,100957.88
2023-06-19T05:56:14.053Z,100958.66
2023-06-19T05:58:57.768Z,100951.53
2023-06-19T06:01:41.538Z,100947.97
2023-06-19T06:04:25.373Z,100950.34
2023-06-19T06:07:09.857Z,100938.88
2023-06-19T06:09:53.544Z,100937.25
2023-06-19T06:12:37.221Z,100938.06
2023-06-19T06:15:21.531Z,100930.91
2023-06-19T06:18:05.736Z,100934.50
2023-06-19T06:20:49.471Z,100944.00
2023-06-19T06:23:33.179Z,100937.28
2023-06-19T06:26:16.837Z,100934.50
2023-06-19T06:29:00.443Z,100933.31
2023-06-19T06:31:48.232Z,100936.09
2023-06-19T06:34:31.910Z,100943.25
2023-06-19T06:37:17.394Z,100944.44
2023-06-19T06:40:01.044Z,100939.69
2023-06-19T06:42:45.209Z,100942.81
2023-06-19T06:45:29.012Z,100949.53
2023-06-19T06:48:15.344Z,100951.13
2023-06-19T06:51:02.567Z,100953.06
2023-06-19T06:53:46.356Z,100954.97
2023-06-19T06:56:30.764Z,100956.59
2023-06-19T06:59:14.632Z,100949.06
2023-06-19T07:01:58.631Z,100957.69
2023-06-19T07:04:42.381Z,100952.66
2023-06-19T07:07:26.001Z,100956.94
2023-06-19T07:10:10.794Z,100956.94
2023-06-19T07:12:54.454Z,100963.06
2023-06-19T07:15:38.083Z,100959.53
2023-06-19T07:18:21.768Z,100960.25
2023-06-19T07:21:15.669Z,100958.97
2023-06-19T07:24:00.852Z,100960.16
2023-06-19T07:26:44.589Z,100955.34
2023-06-19T07:29:28.528Z,100946.66
2023-06-19T07:32:12.128Z,100949.75
2023-06-19T07:34:55.937Z,100950.44
2023-06-19T07:37:39.606Z,100960.72
2023-06-19T07:40:23.452Z,100953.00
2023-06-19T07:43:07.261Z,100962.81
2023-06-19T07:45:51.479Z,100957.34
2023-06-19T07:48:35.134Z,100947.28
2023-06-19T07:51:18.997Z,100959.88
2023-06-19T07:54:03.325Z,100956.28
2023-06-19T07:56:47.033Z,100961.81
2023-06-19T07:59:30.629Z,100964.31
2023-06-19T08:02:14.400Z,100965.13
2023-06-19T08:04:58.122Z,100966.34
2023-06-19T08:07:42.039Z,100959.75
2023-06-19T08:10:26.112Z,100954.84
2023-06-19T08:13:12.700Z,100958.66
2023-06-19T08:15:56.393Z,100957.53
2023-06-19T08:18:40.060Z,100959.81
2023-06-19T08:21:23.701Z,100962.97
2023-06-19T08:24:07.868Z,100968.38
2023-06-19T08:26:52.365Z,100960.34
2023-06-19T08:29:36.081Z,100963.38
2023-06-19T08:32:20.166Z,100967.47
2023-06-19T08:35:04.407Z,100961.59
2023-06-19T08:37:48.246Z,100962.44
2023-06-19T08:40:31.810Z,100964.38
2023-06-19T08:43:15.539Z,100968.88
2023-06-19T08:46:12.586Z,100965.13
2023-06-19T08:48:57.478Z,100958.97
2023-06-19T08:51:42.049Z,100957.47
2023-06-19T08:54:28.927Z,100956.97
2023-06-19T08:57:13.678Z,100960.59
2023-06-19T08:59:57.446Z,100958.25
2023-06-19T09:02:44.805Z,100962.63
2023-06-19T09:05:29.007Z,100961.66
2023-06-19T09:08:15.035Z,100960.50
2023-06-19T09:11:04.397Z,100960.41
2023-06-19T09:13:58.862Z,100966.50
2023-06-19T09:16:43.417Z,100970.97
2023-06-19T09:19:27.090Z,100970.88
2023-06-19T09:22:10.718Z,100969.25
2023-06-19T09:24:54.435Z,100957.47
2023-06-19T09:27:38.388Z,100967.78
2023-06-19T09:30:22.474Z,100968.16
2023-06-19T09:33:09.868Z,100954.94
2023-06-19T09:35:57.039Z,100950.72
2023-06-19T09:38:42.238Z,100959.50
2023-06-19T09:41:37.618Z,100955.03
2023-06-19T09:44:25.229Z,100955.97
2023-06-19T09:47:33.886Z,100960.34
2023-06-19T09:50:19.089Z,100958.69
2023-06-19T09:53:06.298Z,100964.44
2023-06-19T09:55:54.015Z,100969.00
2023-06-19T09:58:39.115Z,100977.94
2023-06-19T10:01:25.474Z,100977.06
2023-06-19T10:04:12.482Z,100985.88
2023-06-19T10:06:58.724Z,100972.88
2023-06-19T10:09:42.370Z,100973.38
2023-06-19T10:12:47.512Z,100966.06
2023-06-19T10:15:34.149Z,100947.75
2023-06-19T10:18:19.715Z,100948.00
2023-06-19T10:21:03.429Z,100933.69
2023-06-19T10:23:57.496Z,100933.09
2023-06-19T10:26:41.261Z,100927.56
2023-06-19T10:29:25.033Z,100924.50
2023-06-19T10:32:09.110Z,100918.91
2023-06-19T10:34:52.755Z,100916.72
2023-06-19T10:37:36.438Z,100916.03
2023-06-19T10:40:20.211Z,100917.69
2023-06-19T10:43:05.556Z,100922.22
2023-06-19T10:45:49.235Z,100919.34
2023-06-19T10:48:33.670Z,100916.81
2023-06-19T10:51:24.303Z,100913.06
2023-06-19T10:54:09.070Z,100906.91
2023-06-19T10:56:52.901Z,100908.50
2023-06-19T10:59:36.790Z,100909.72
2023-06-19T11:02:20.435Z,100898.59
2023-06-19T11:05:04.553Z,100909.34
2023-06-19T11:08:01.273Z,100898.47
2023-06-19T11:10:44.926Z,100889.69
2023-06-19T11:13:28.564Z,100889.63
2023-06-19T11:16:12.345Z,100897.28
2023-06-19T11:19:00.240Z,100891.88
2023-06-19T11:21:50.080Z,100885.03
2023-06-19T11:24:33.827Z,100883.38
2023-06-19T11:27:28.178Z,100883.97
2023-06-19T11:30:12.161Z,100877.94
2023-06-19T11:32:55.869Z,100881.88
2023-06-19T11:35:40.527Z,100877.06
2023-06-19T11:38:27.322Z,100873.81
2023-06-19T11:41:11.642Z,100870.88
2023-06-19T11:44:02.105Z,100864.06
2023-06-19T11:46:45.869Z,100868.53
2023-06-19T11:49:36.228Z,100874.38
2023-06-19T11:52:19.940Z,100876.34
2023-06-19T11:55:04.871Z,100874.00
2023-06-19T11:57:48.613Z,100879.75
2023-06-19T12:00:32.215Z,100877.06
2023-06-19T12:03:16.894Z,100883.44
2023-06-19T12:06:00.630Z,100877.63
2023-06-19T12:08:44.292Z,100865.94
2023-06-19T12:11:27.917Z,100874.38
2023-06-19T12:14:11.538Z,100879.53
2023-06-19T12:16:55.187Z,100872.91
2023-06-19T12:19:39.226Z,100873.19
2023-06-19T12:22:22.874Z,100878.22
2023-06-19T12:25:06.844Z,100877.41
2023-06-19T12:27:53.967Z,100872.53
2023-06-19T12:30:38.963Z,100858.53
2023-06-19T12:33:22.656Z,100858.38
2023-06-19T12:36:06.736Z,100856.78
2023-06-19T12:38:50.608Z,100858.78
2023-06-19T12:41:34.283Z,100861.69
2023-06-19T12:44:18.463Z,100870.69
2023-06-19T12:47:02.229Z,100866.50
2023-06-19T12:49:45.902Z,100872.81
2023-06-19T12:52:29.592Z,100864.09
2023-06-19T12:55:13.229Z,100858.88
2023-06-19T12:57:56.884Z,100857.22
2023-06-19T13:00:40.441Z,100860.84
2023-06-19T13:03:24.282Z,100851.63
2023-06-19T13:06:08.039Z,100847.84
2023-06-19T13:08:51.965Z,100842.91
2023-06-19T13:11:35.779Z,100846.22
2023-06-19T13:14:19.417Z,100846.50
2023-06-19T13:17:03.200Z,100844.41
2023-06-19T13:19:46.899Z,100847.78
2023-06-19T13:22:31.413Z,100837.06
2023-06-19T13:25:15.057Z,100841.13
2023-06-19T13:27:58.645Z,100845.44
2023-06-19T13:30:42.523Z,100845.84
2023-06-19T13:33:27.036Z,100835.19
2023-06-19T13:36:10.708Z,100826.56
2023-06-19T13:38:54.633Z,100827.31
2023-06-19T13:41:38.326Z,100825.91
2023-06-19T13:44:21.883Z,100829.97
2023-06-19T13:47:06.449Z,100825.34
2023-06-19T13:49:50.107Z,100830.03
2023-06-19T13:52:33.718Z,100827.97
2023-06-19T13:55:17.925Z,100830.13
2023-06-19T13:58:01.608Z,100822.66
2023-06-19T14:00:45.194Z,100811.53
2023-06-19T14:03:29.023Z,100815.13
2023-06-19T14:06:13.771Z,100798.38
2023-06-19T14:08:57.703Z,100809.81
2023-06-19T14:11:41.438Z,100810.91
2023-06-19T14:14:25.164Z,100806.53
2023-06-19T14:17:08.854Z,100797.63
2023-06-19T14:19:52.936Z,100804.19
2023-06-19T14:22:36.584Z,100818.34
2023-06-19T14:25:20.444Z,100815.88
2023-06-19T14:28:05.992Z,100822.41
2023-06-19T14:30:49.721Z,100812.78
2023-06-19T14:33:34.342Z,100822.44
2023-06-19T14:36:17.929Z,100814.03
2023-06-19T14:39:01.897Z,100821.84
2023-06-19T14:41:45.508Z,100827.47
2023-06-19T14:44:29.113Z,100830.59
2023-06-19T14:47:12.869Z,100824.38
2023-06-19T14:49:56.520Z,100829.34
2023-06-19T14:52:40.300Z,100827.94
2023-06-19T14:55:24.048Z,100823.28
2023-06-19T14:58:07.628Z,100820.94
2023-06-19T15:00:51.441Z,100824.75
2023-06-19T15:03:36.006Z,100826.34
2023-06-19T15:06:19.808Z,100828.81
2023-06-19T15:09:05.489Z,100823.34
2023-06-19T15:11:49.347Z,100823.06
2023-06-19T15:14:34.541Z,100814.16
2023-06-19T15:17:18.265Z,100826.72
2023-06-19T15:20:01.997Z,100833.44
2023-06-19T15:22:45.856Z,100823.53
2023-06-19T15:25:29.453Z,100822.50
2023-06-19T15:28:13.234Z,100820.03
2023-06-19T15:30:56.871Z,100816.41
2023-06-19T15:33:40.778Z,100826.78
2023-06-19T15:36:24.639Z,100818.78
2023-06-19T15:39:08.279Z,100818.84
2023-06-19T15:41:51.875Z,100815.28
2023-06-19T15:44:35.506Z,100827.53
2023-06-19T15:47:19.646Z,100819.50
2023-06-19T15:50:05.071Z,100814.47
2023-06-19T15:52:48.713Z,100814.81
2023-06-19T15:55:32.462Z,100821.91
2023-06-19T15:58:18.536Z,100819.97
2023-06-19T16:01:02.386Z,100813.66
2023-06-19T16:03:46.187Z,100813.56
2023-06-19T16:06:29.881Z,100814.25
2023-06-19T16:09:13.481Z,100806.31
2023-06-19T16:11:57.123Z,100805.31
2023-06-19T16:14:40.949Z,100806.63
2023-06-19T16:17:24.793Z,100801.25
2023-06-19T16:20:09.903Z,100801.75
2023-06-19T16:22:53.738Z,100804.78
2023-06-19T16:25:37.419Z,100796.28
2023-06-19T16:28:21.019Z,100797.50
2023-06-19T16:31:04.780Z,100796.53
2023-06-19T16:33:48.394Z,100806.88
2023-06-19T16:36:32.195Z,100802.59
2023-06-19T16:39:18.524Z,100801.94
2023-06-19T16:42:02.352Z,100803.84
2023-06-19T16:44:48.349Z,100800.50
2023-06-19T16:47:31.967Z,100803.97
2023-06-19T16:50:15.811Z,100800.16
2023-06-19T16:53:00.134Z,100804.31
2023-06-19T16:55:43.984Z,100804.16
2023-06-19T16:58:27.786Z,100806.81
2023-06-19T17:01:13.164Z,100804.63
2023-06-19T17:03:57.087Z,100808.41
2023-06-19T17:06:40.682Z,100799.63
2023-06-19T17:09:24.282Z,100791.75
2023-06-19T17:12:08.258Z,100793.34
2023-06-19T17:14:52.225Z,100795.06
2023-06-19T17:17:36.664Z,100798.56
2023-06-19T17:20:20.331Z,100803.03
2023-06-19T17:23:03.953Z,100802.09
2023-06-19T17:25:47.525Z,100792.84
2023-06-19T17:28:31.142Z,100798.97
2023-06-19T17:31:14.797Z,100794.53
2023-06-19T17:33:58.436Z,100797.38
2023-06-19T17:36:42.010Z,100798.31
2023-06-19T17:39:25.704Z,100808.50
2023-06-19T17:42:09.576Z,100807.56
2023-06-19T17:44:53.229Z,100800.66
2023-06-19T17:47:36.910Z,100806.72
2023-06-19T17:50:21.039Z,100803.44
2023-06-19T17:53:05.942Z,100801.34
2023-06-19T17:55:49.518Z,100798.31
2023-06-19T17:58:33.171Z,100802.53
2023-06-19T18:01:16.789Z,100802.59
2023-06-19T18:04:00.622Z,100798.22
2023-06-19T18:06:44.470Z,100794.91
2023-06-19T18:09:28.171Z,100787.69
2023-06-19T18:12:13.466Z,100793.97
2023-06-19T18:14:57.059Z,100798.16
2023-06-19T18:17:43.183Z,100797.66
2023-06-19T18:20:27.289Z,100790.50
2023-06-19T18:23:11.346Z,100796.81
2023-06-19T18:25:54.945Z,100798.38
2023-06-19T18:28:38.560Z,100794.88
2023-06-19T18:31:22.160Z,100797.47
2023-06-19T18:34:05.912Z,100790.75
2023-06-19T18:36:52.709Z,100799.59
2023-06-19T18:39:38.601Z,100802.47
2023-06-19T18:42:22.444Z,100800.03
2023-06-19T18:45:07.486Z,100805.09
2023-06-19T18:47:51.281Z,100805.28
2023-06-19T18:50:34.971Z,100808.75
2023-06-19T18:53:18.685Z,100802.97
2023-06-19T18:56:02.427Z,100806.22
2023-06-19T18:58:46.899Z,100808.06
2023-06-19T19:01:31.309Z,100815.75
2023-06-19T19:04:15.173Z,100824.53
2023-06-19T19:06:58.827Z,100821.38
2023-06-19T19:09:42.486Z,100822.25
2023-06-19T19:12:26.092Z,100821.97
2023-06-19T19:15:10.104Z,100830.03
2023-06-19T19:17:53.782Z,100826.00
2023-06-19T19:20:37.453Z,100828.38
2023-06-19T19:23:21.076Z,100822.19
2023-06-19T19:26:06.214Z,100822.47
2023-06-19T19:28:50.197Z,100822.47
2023-06-19T19:31:33.946Z,100825.28
2023-06-19T19:34:22.208Z,100826.63
2023-06-19T19:37:07.559Z,100834.38
2023-06-19T19:39:51.207Z,100834.28
2023-06-19T19:42:34.775Z,100831.34
2023-06-19T19:45:18.500Z,100843.72
2023-06-19T19:48:02.165Z,100837.75
2023-06-19T19:50:45.844Z,100841.75
2023-06-19T19:53:29.428Z,100841.13
2023-06-19T19:56:13.141Z,100845.78
2023-06-19T19:58:57.110Z,100852.34
2023-06-19T20:01:40.732Z,100841.50
2023-06-19T20:04:24.793Z,100844.97
2023-06-19T20:07:08.521Z,100841.59
2023-06-19T20:09:52.151Z,100841.69
2023-06-19T20:12:35.935Z,100844.91
2023-06-19T20:15:19.994Z,100841.59
2023-06-19T20:18:03.717Z,100843.16
2023-06-19T20:20:47.428Z,100855.50
2023-06-19T20:23:31.160Z,100853.53
2023-06-19T20:26:15.261Z,100848.56
2023-06-19T20:29:00.415Z,100853.94
2023-06-19T20:31:44.044Z,100857.88
2023-06-19T20:34:28.472Z,100854.13
2023-06-19T20:37:12.146Z,100853.03
2023-06-19T20:39:55.779Z,100853.09
2023-06-19T20:42:39.412Z,100850.16
2023-06-19T20:45:25.682Z,100854.59
2023-06-19T20:48:09.380Z,100863.16
2023-06-19T20:50:54.326Z,100862.41
2023-06-19T20:53:37.903Z,100872.94
2023-06-19T20:56:21.545Z,100860.13
2023-06-19T20:59:05.352Z,100861.50
2023-06-19T21:01:49.019Z,100872.88
2023-06-19T21:04:33.022Z,100872.56
2023-06-19T21:07:16.655Z,100866.84
2023-06-19T21:10:00.423Z,100866.84
2023-06-19T21:12:44.088Z,100878.91
2023-06-19T21:15:27.704Z,100868.41
2023-06-19T21:18:11.337Z,100869.69
2023-06-19T21:20:57.080Z,100872.06
2023-06-19T21:23:40.743Z,100873.41
2023-06-19T21:26:24.564Z,100867.31
2023-06-19T21:29:08.260Z,100872.13
2023-06-19T21:31:51.949Z,100871.06
2023-06-19T21:34:35.558Z,100873.56
2023-06-19T21:37:19.203Z,100871.38
2023-06-19T21:40:04.695Z,100878.81
2023-06-19T21:42:48.292Z,100865.47
2023-06-19T21:45:31.896Z,100873.53
2023-06-19T21:48:15.578Z,100875.63
2023-06-19T21:50:59.161Z,100877.16
2023-06-19T21:53:42.844Z,100882.09
2023-06-19T21:56:26.439Z,100880.91
2023-06-19T21:59:10.105Z,100881.81
2023-06-19T22:01:53.733Z,100880.06
2023-06-19T22:04:38.220Z,100887.22
2023-06-19T22:07:21.881Z,100884.47
2023-06-19T22:10:06.150Z,100889.31
2023-06-19T22:12:49.866Z,100892.13
2023-06-19T22:15:33.438Z,100885.41
2023-06-19T22:18:19.334Z,100893.38
2023-06-19T22:21:02.942Z,100887.47
2023-06-19T22:23:46.566Z,100885.84
2023-06-19T22:26:32.833Z,100884.25
2023-06-19T22:29:16.538Z,100888.72
2023-06-19T22:32:00.750Z,100890.81
2023-06-19T22:34:44.318Z,100888.47
2023-06-19T22:37:27.894Z,100897.31
2023-06-19T22:40:12.104Z,100890.16
2023-06-19T22:42:55.737Z,100877.97
2023-06-19T22:45:39.397Z,100881.56
2023-06-19T22:48:23.131Z,100881.13
2023-06-19T22:51:06.772Z,100891.16
2023-06-19T22:53:51.080Z,100894.34
2023-06-19T22:56:34.677Z,100894.03
2023-06-19T22:59:18.503Z,100891.31
2023-06-19T23:02:02.204Z,100893.22
2023-06-19T23:04:46.172Z,100892.19
2023-06-19T23:07:32.672Z,100897.72
2023-06-19T23:10:16.314Z,100896.59
2023-06-19T23:12:59.902Z,100901.41
2023-06-19T23:15:43.462Z,100895.88
2023-06-19T23:18:27.039Z,100898.66
2023-06-19T23:21:10.817Z,100895.91
2023-06-19T23:23:54.456Z,100899.00
2023-06-19T23:26:38.318Z,100901.41
2023-06-19T23:29:21.935Z,100908.59
2023-06-19T23:32:06.517Z,100903.84
2023-06-19T23:34:50.220Z,100900.34
2023-06-19T23:37:33.975Z,100907.50
2023-06-19T23:40:17.871Z,100901.59
2023-06-19T23:43:01.471Z,100904.28
2023-06-19T23:45:46.234Z,100904.66
2023-06-19T23:48:30.326Z,100905.50
2023-06-19T23:51:14.187Z,100901.97
2023-06-19T23:53:57.817Z,100904.69
2023-06-19T23:56:41.421Z,100913.03
2023-06-19T23:59:25.207Z,100906.25
